createdAt,value
2018-10-04T00:01:09.010Z,88.03
2018-10-04T00:03:40.354Z,86.17
2018-10-04T00:06:11.308Z,88.77
2018-10-04T00:08:42.626Z,81.83
2018-10-04T00:11:13.702Z,82.07
2018-10-04T00:13:44.944Z,83.37
2018-10-04T00:16:15.962Z,87.23
2018-10-04T00:18:48.185Z,82.80
2018-10-04T00:21:19.068Z,77.63
2018-10-04T00:23:50.380Z,79.60
2018-10-04T00:26:22.325Z,82.07
2018-10-04T00:28:53.605Z,79.83
2018-10-04T00:31:24.702Z,79.80
2018-10-04T00:33:56.035Z,82.47
2018-10-04T00:36:26.986Z,79.33
2018-10-04T00:38:59.161Z,78.53
2018-10-04T00:41:30.165Z,79.90
2018-10-04T00:44:01.584Z,79.77
2018-10-04T00:46:32.486Z,82.33
2018-10-04T00:49:03.810Z,81.00
2018-10-04T00:51:34.850Z,80.63
2018-10-04T00:54:06.097Z,79.93
2018-10-04T00:56:36.959Z,81.43
2018-10-04T00:59:08.463Z,83.53
2018-10-04T01:01:40.686Z,82.03
2018-10-04T01:04:11.848Z,82.80
2018-10-04T01:06:42.858Z,77.70
2018-10-04T01:09:14.055Z,79.73
2018-10-04T01:11:45.174Z,78.30
2018-10-04T01:14:16.185Z,82.67
2018-10-04T01:16:47.181Z,76.30
2018-10-04T01:19:18.597Z,81.90
2018-10-04T01:21:49.556Z,76.50
2018-10-04T01:24:20.594Z,80.47
2018-10-04T01:26:51.538Z,79.30
2018-10-04T01:29:22.920Z,78.67
2018-10-04T01:31:53.829Z,81.57
2018-10-04T01:34:25.390Z,77.30
2018-10-04T01:36:56.515Z,76.83
2018-10-04T01:39:28.097Z,77.93
2018-10-04T01:41:59.920Z,76.10
2018-10-04T01:44:31.517Z,78.10
2018-10-04T01:47:02.455Z,77.87
2018-10-04T01:49:34.282Z,75.37
2018-10-04T01:52:05.914Z,78.20
2018-10-04T01:54:37.246Z,76.10
2018-10-04T01:57:08.782Z,77.53
2018-10-04T01:59:41.034Z,82.30
2018-10-04T02:02:14.779Z,83.20
2018-10-04T02:04:46.278Z,82.17
2018-10-04T02:07:17.621Z,78.60
2018-10-04T02:09:49.840Z,80.73
2018-10-04T02:12:21.304Z,82.33
2018-10-04T02:14:52.934Z,80.80
2018-10-04T02:17:26.998Z,81.13
2018-10-04T02:20:02.433Z,84.23
2018-10-04T02:22:40.701Z,82.23
2018-10-04T02:25:12.110Z,80.77
2018-10-04T02:27:43.476Z,88.27
2018-10-04T02:30:15.417Z,84.43
2018-10-04T02:32:46.618Z,90.30
2018-10-04T02:35:18.307Z,87.03
2018-10-04T02:37:49.861Z,87.10
2018-10-04T02:40:21.373Z,84.93
2018-10-04T02:42:52.297Z,88.07
2018-10-04T02:45:23.599Z,90.37
2018-10-04T02:47:54.603Z,90.87
2018-10-04T02:50:26.543Z,87.40
2018-10-04T02:52:57.500Z,84.53
2018-10-04T02:55:34.442Z,88.00
2018-10-04T02:58:05.737Z,86.47
2018-10-04T03:00:38.359Z,82.60
2018-10-04T03:03:10.595Z,84.67
2018-10-04T03:05:42.377Z,83.53
2018-10-04T03:08:13.938Z,91.13
2018-10-04T03:10:45.673Z,85.77
2018-10-04T03:13:17.146Z,85.57
2018-10-04T03:15:49.025Z,86.53
2018-10-04T03:18:20.238Z,91.47
2018-10-04T03:20:52.034Z,94.37
2018-10-04T03:23:23.204Z,88.20
2018-10-04T03:25:54.987Z,91.67
2018-10-04T03:28:26.858Z,92.60
2018-10-04T03:30:58.174Z,87.60
2018-10-04T03:33:29.229Z,96.20
2018-10-04T03:36:00.518Z,90.77
2018-10-04T03:38:31.627Z,95.93
2018-10-04T03:41:02.677Z,93.00
2018-10-04T03:43:34.085Z,88.50
2018-10-04T03:46:05.406Z,89.50
2018-10-04T03:48:36.406Z,87.70
2018-10-04T03:51:08.134Z,89.97
2018-10-04T03:53:39.019Z,83.07
2018-10-04T03:56:10.442Z,74.63
2018-10-04T03:58:41.568Z,75.43
2018-10-04T04:01:13.484Z,79.30
2018-10-04T04:03:45.656Z,77.60
2018-10-04T04:06:16.938Z,77.93
2018-10-04T04:08:47.789Z,71.07
2018-10-04T04:11:20.101Z,80.33
2018-10-04T04:13:51.338Z,76.17
2018-10-04T04:16:23.118Z,77.97
2018-10-04T04:18:54.293Z,74.70
2018-10-04T04:21:25.907Z,80.67
2018-10-04T04:23:57.342Z,77.20
2018-10-04T04:26:28.779Z,72.00
2018-10-04T04:29:00.202Z,76.00
2018-10-04T04:31:31.570Z,77.13
2018-10-04T04:34:03.054Z,74.23
2018-10-04T04:36:34.558Z,78.10
2018-10-04T04:39:07.230Z,70.00
2018-10-04T04:41:39.018Z,66.00
2018-10-04T04:44:10.119Z,69.57
2018-10-04T04:46:41.872Z,67.07
2018-10-04T04:49:13.166Z,64.20
2018-10-04T04:51:45.367Z,58.87
2018-10-04T04:55:29.657Z,52.60
2018-10-04T04:58:02.204Z,49.57
2018-10-04T05:00:34.377Z,47.07
2018-10-04T05:03:05.744Z,49.10
2018-10-04T05:05:42.415Z,48.50
2018-10-04T05:08:14.146Z,48.40
2018-10-04T05:10:45.014Z,47.40
2018-10-04T05:13:16.332Z,47.50
2018-10-04T05:15:47.483Z,47.97
2018-10-04T05:18:18.553Z,50.07
2018-10-04T05:20:49.514Z,50.70
2018-10-04T05:23:20.686Z,48.67
2018-10-04T05:25:51.685Z,47.37
2018-10-04T05:28:22.853Z,43.37
2018-10-04T05:30:53.877Z,47.07
2018-10-04T05:33:25.010Z,46.13
2018-10-04T05:35:56.086Z,45.73
2018-10-04T05:38:27.118Z,42.13
2018-10-04T05:40:58.634Z,39.23
2018-10-04T05:43:29.852Z,36.80
2018-10-04T05:46:03.069Z,33.10
2018-10-04T05:48:34.492Z,30.13
2018-10-04T05:51:05.784Z,29.07
2018-10-04T05:56:04.729Z,29.60
2018-10-04T05:58:36.180Z,27.23
2018-10-04T06:01:07.838Z,28.73
2018-10-04T06:03:39.304Z,26.43
2018-10-04T06:06:12.093Z,27.73
2018-10-04T06:08:43.454Z,29.50
2018-10-04T06:11:16.075Z,25.53
2018-10-04T06:13:47.499Z,24.53
2018-10-04T06:16:19.010Z,23.20
2018-10-04T06:18:50.370Z,22.73
2018-10-04T06:21:21.899Z,28.47
2018-10-04T06:23:53.318Z,30.00
2018-10-04T06:26:25.182Z,31.20
2018-10-04T06:28:56.739Z,29.80
2018-10-04T06:31:28.046Z,30.10
2018-10-04T06:33:59.022Z,27.20
2018-10-04T06:36:30.365Z,26.00
2018-10-04T06:39:01.581Z,24.70
2018-10-04T06:41:32.793Z,28.70
2018-10-04T06:44:03.914Z,27.60
2018-10-04T06:46:35.254Z,29.23
2018-10-04T06:49:06.286Z,27.70
2018-10-04T06:51:37.462Z,27.40
2018-10-04T06:54:08.366Z,27.83
2018-10-04T06:56:39.587Z,27.07
2018-10-04T06:59:10.594Z,28.10
2018-10-04T07:01:42.114Z,25.90
2018-10-04T07:04:13.161Z,25.97
2018-10-04T07:06:45.837Z,25.23
2018-10-04T07:09:16.757Z,25.63
2018-10-04T07:11:48.006Z,25.33
2018-10-04T07:14:18.791Z,22.43
2018-10-04T07:16:50.138Z,22.05
2018-10-04T07:19:21.103Z,21.70
2018-10-04T07:21:52.190Z,23.42
2018-10-04T07:24:23.252Z,22.10
2018-10-04T07:26:54.603Z,23.87
2018-10-04T07:29:25.478Z,23.05
2018-10-04T07:31:57.028Z,23.15
2018-10-04T07:34:27.925Z,24.02
2018-10-04T07:36:59.374Z,25.32
2018-10-04T07:39:30.326Z,24.52
2018-10-04T07:42:01.659Z,26.15
2018-10-04T07:44:32.822Z,25.97
2018-10-04T07:47:04.090Z,27.50
2018-10-04T07:49:35.118Z,28.40
2018-10-04T07:52:06.354Z,36.90
2018-10-04T07:54:37.385Z,36.90
2018-10-04T07:57:08.657Z,42.97
2018-10-04T07:59:39.566Z,42.40
2018-10-04T08:02:10.945Z,44.37
2018-10-04T08:04:41.859Z,45.20
2018-10-04T08:07:13.701Z,43.80
2018-10-04T08:09:44.845Z,42.50
2018-10-04T08:12:16.070Z,46.63
2018-10-04T08:14:47.074Z,47.20
2018-10-04T08:17:18.354Z,48.30
2018-10-04T08:19:49.377Z,47.93
2018-10-04T08:22:20.814Z,45.53
2018-10-04T08:24:51.822Z,47.90
2018-10-04T08:27:23.157Z,44.87
2018-10-04T08:29:54.312Z,44.30
2018-10-04T08:32:25.739Z,42.87
2018-10-04T08:34:57.119Z,41.77
2018-10-04T08:37:28.312Z,43.13
2018-10-04T08:39:59.274Z,42.30
2018-10-04T08:42:30.605Z,41.40
2018-10-04T08:45:01.568Z,46.17
2018-10-04T08:47:33.221Z,43.57
2018-10-04T08:50:06.306Z,40.80
2018-10-04T08:52:42.194Z,43.50
2018-10-04T08:55:18.071Z,40.80
2018-10-04T08:57:49.545Z,39.67
2018-10-04T09:00:27.987Z,37.10
2018-10-04T09:03:01.229Z,39.27
2018-10-04T09:05:32.916Z,37.37
2018-10-04T09:08:05.543Z,35.60
2018-10-04T09:10:36.534Z,38.20
2018-10-04T09:13:07.789Z,37.30
2018-10-04T09:15:38.846Z,37.63
2018-10-04T09:18:10.019Z,34.00
2018-10-04T09:20:41.145Z,35.50
2018-10-04T09:23:12.489Z,34.23
2018-10-04T09:25:43.393Z,38.77
2018-10-04T09:28:16.268Z,32.73
2018-10-04T09:30:51.993Z,32.43
2018-10-04T09:33:23.230Z,34.37
2018-10-04T09:35:54.205Z,34.50
2018-10-04T09:38:25.350Z,34.33
2018-10-04T09:40:56.539Z,31.83
2018-10-04T09:43:27.725Z,33.30
2018-10-04T09:45:58.682Z,33.20
2018-10-04T09:48:30.123Z,32.40
2018-10-04T09:51:05.319Z,26.10
2018-10-04T09:53:41.374Z,32.03
2018-10-04T09:56:17.132Z,33.47
2018-10-04T09:58:48.386Z,31.93
2018-10-04T10:01:24.126Z,32.63
2018-10-04T10:03:55.527Z,33.17
2018-10-04T10:06:27.073Z,32.53
2018-10-04T10:09:01.064Z,31.63
2018-10-04T10:11:32.003Z,27.50
2018-10-04T10:14:03.393Z,27.70
2018-10-04T10:16:34.361Z,29.13
2018-10-04T10:19:05.590Z,30.93
2018-10-04T10:21:36.572Z,33.93
2018-10-04T10:24:08.150Z,34.70
2018-10-04T10:26:39.165Z,34.27
2018-10-04T10:29:10.547Z,33.73
2018-10-04T10:31:41.506Z,36.63
2018-10-04T10:34:12.686Z,45.50
2018-10-04T10:36:43.544Z,39.60
2018-10-04T10:39:15.001Z,43.40
2018-10-04T10:41:45.933Z,36.27
2018-10-04T10:44:17.207Z,38.10
2018-10-04T10:46:48.202Z,35.33
2018-10-04T10:49:19.491Z,34.97
2018-10-04T10:51:50.534Z,37.50
2018-10-04T10:54:21.862Z,39.03
2018-10-04T10:56:52.818Z,34.73
2018-10-04T10:59:25.444Z,29.47
2018-10-04T11:01:56.762Z,32.50
2018-10-04T11:04:28.226Z,29.63
2018-10-04T11:06:59.244Z,35.90
2018-10-04T11:09:32.071Z,36.10
2018-10-04T11:12:03.214Z,34.97
2018-10-04T11:14:34.475Z,34.40
2018-10-04T11:17:05.577Z,34.87
2018-10-04T11:19:36.885Z,34.60
2018-10-04T11:22:07.887Z,30.67
2018-10-04T11:24:39.183Z,31.97
2018-10-04T11:27:10.180Z,30.87
2018-10-04T11:29:41.722Z,29.70
2018-10-04T11:32:12.599Z,31.67
2018-10-04T11:34:44.875Z,33.90
2018-10-04T11:37:18.379Z,34.93
2018-10-04T11:39:50.731Z,35.03
2018-10-04T11:42:21.838Z,33.77
2018-10-04T11:44:58.598Z,34.93
2018-10-04T11:47:34.543Z,32.63
2018-10-04T11:50:06.570Z,34.50
2018-10-04T11:52:38.084Z,31.03
2018-10-04T11:55:09.375Z,31.83
2018-10-04T11:57:40.576Z,32.37
2018-10-04T12:00:12.192Z,32.70
2018-10-04T12:02:43.741Z,35.53
2018-10-04T12:05:15.324Z,36.50
2018-10-04T12:07:46.355Z,35.97
2018-10-04T12:10:18.595Z,33.37
2018-10-04T12:12:49.591Z,36.10
2018-10-04T12:15:20.878Z,34.63
2018-10-04T12:17:51.879Z,36.07
2018-10-04T12:20:23.559Z,35.80
2018-10-04T12:22:54.493Z,34.13
2018-10-04T12:25:25.687Z,36.43
2018-10-04T12:27:56.603Z,36.47
2018-10-04T12:30:27.575Z,36.50
2018-10-04T12:32:58.630Z,38.47
2018-10-04T12:35:29.871Z,39.40
2018-10-04T12:38:00.828Z,43.00
2018-10-04T12:40:32.954Z,39.13
2018-10-04T12:43:03.931Z,39.13
2018-10-04T12:45:35.239Z,40.13
2018-10-04T12:48:06.240Z,38.83
2018-10-04T12:50:37.335Z,39.07
2018-10-04T12:53:08.376Z,38.43
2018-10-04T12:55:39.696Z,39.53
2018-10-04T12:58:10.608Z,38.57
2018-10-04T13:00:41.769Z,37.50
2018-10-04T13:03:12.797Z,38.67
2018-10-04T13:05:44.212Z,38.77
2018-10-04T13:08:15.274Z,39.83
2018-10-04T13:10:47.754Z,41.33
2018-10-04T13:13:18.756Z,40.57
2018-10-04T13:15:50.112Z,39.70
2018-10-04T13:18:21.091Z,37.10
2018-10-04T13:20:52.560Z,35.10
2018-10-04T13:23:23.599Z,36.73
2018-10-04T13:25:54.867Z,38.13
2018-10-04T13:28:25.888Z,37.10
2018-10-04T13:30:57.606Z,37.57
2018-10-04T13:33:28.623Z,37.33
2018-10-04T13:36:00.120Z,38.23
2018-10-04T13:38:31.271Z,39.30
2018-10-04T13:41:02.696Z,39.87
2018-10-04T13:43:33.776Z,44.80
2018-10-04T13:46:05.333Z,36.63
2018-10-04T13:48:36.463Z,36.70
2018-10-04T13:51:08.258Z,36.50
2018-10-04T13:53:39.347Z,39.73
2018-10-04T13:56:10.755Z,37.97
2018-10-04T13:58:41.859Z,39.30
2018-10-04T14:01:13.164Z,41.47
2018-10-04T14:03:44.090Z,39.73
2018-10-04T14:06:15.424Z,42.40
2018-10-04T14:08:46.558Z,43.23
2018-10-04T14:11:19.548Z,41.13
2018-10-04T14:13:50.559Z,42.90
2018-10-04T14:16:21.868Z,39.63
2018-10-04T14:18:52.862Z,44.67
2018-10-04T14:21:24.320Z,46.10
2018-10-04T14:23:55.368Z,42.83
2018-10-04T14:26:26.496Z,41.77
2018-10-04T14:28:57.463Z,40.40
2018-10-04T14:31:28.931Z,42.97
2018-10-04T14:34:00.015Z,42.40
2018-10-04T14:36:31.312Z,44.17
2018-10-04T14:39:02.370Z,44.20
2018-10-04T14:41:33.603Z,43.47
2018-10-04T14:44:04.677Z,45.30
2018-10-04T14:46:36.315Z,41.70
2018-10-04T14:49:07.375Z,43.93
2018-10-04T14:51:38.537Z,43.27
2018-10-04T14:54:09.655Z,42.27
2018-10-04T14:56:40.924Z,41.90
2018-10-04T14:59:11.988Z,43.53
2018-10-04T15:01:43.132Z,46.03
2018-10-04T15:04:14.463Z,44.40
2018-10-04T15:06:46.673Z,41.00
2018-10-04T15:09:17.574Z,42.97
2018-10-04T15:11:49.823Z,42.20
2018-10-04T15:14:20.767Z,44.20
2018-10-04T15:16:52.231Z,45.60
2018-10-04T15:19:23.268Z,44.37
2018-10-04T15:21:54.799Z,46.60
2018-10-04T15:24:25.769Z,43.80
2018-10-04T15:26:57.159Z,47.43
2018-10-04T15:29:28.035Z,47.67
2018-10-04T15:31:59.296Z,48.57
2018-10-04T15:34:30.276Z,47.97
2018-10-04T15:37:01.577Z,47.87
2018-10-04T15:39:32.495Z,48.17
2018-10-04T15:42:03.863Z,48.63
2018-10-04T15:44:34.860Z,49.30
2018-10-04T15:47:06.331Z,48.17
2018-10-04T15:49:37.275Z,47.80
2018-10-04T15:52:08.691Z,50.20
2018-10-04T15:54:39.715Z,47.17
2018-10-04T15:57:11.167Z,47.40
2018-10-04T15:59:42.236Z,52.20
2018-10-04T16:02:13.395Z,50.80
2018-10-04T16:04:44.323Z,48.90
2018-10-04T16:07:15.796Z,51.87
2018-10-04T16:09:47.062Z,48.87
2018-10-04T16:12:20.379Z,49.10
2018-10-04T16:14:51.709Z,50.30
2018-10-04T16:17:22.892Z,52.17
2018-10-04T16:19:53.963Z,49.83
2018-10-04T16:22:25.131Z,48.57
2018-10-04T16:24:56.171Z,47.27
2018-10-04T16:27:32.113Z,46.00
2018-10-04T16:30:03.262Z,49.43
2018-10-04T16:32:34.512Z,48.63
2018-10-04T16:35:05.471Z,48.70
2018-10-04T16:37:36.979Z,49.10
2018-10-04T16:40:08.003Z,49.90
2018-10-04T16:42:39.484Z,48.30
2018-10-04T16:45:10.760Z,47.90
2018-10-04T16:47:42.473Z,46.77
2018-10-04T16:50:14.569Z,46.70
2018-10-04T16:52:46.336Z,50.07
2018-10-04T16:55:17.472Z,48.23
2018-10-04T16:57:49.201Z,51.57
2018-10-04T17:00:20.304Z,46.90
2018-10-04T17:02:51.403Z,50.50
2018-10-04T17:05:33.411Z,47.83
2018-10-04T17:08:04.872Z,47.63
2018-10-04T17:10:35.923Z,48.37
2018-10-04T17:13:08.311Z,49.60
2018-10-04T17:15:39.340Z,52.27
2018-10-04T17:18:10.556Z,50.13
2018-10-04T17:20:41.712Z,51.57
2018-10-04T17:23:13.033Z,51.27
2018-10-04T17:25:48.772Z,50.10
2018-10-04T17:28:19.948Z,53.10
2018-10-04T17:30:51.144Z,49.43
2018-10-04T17:33:22.476Z,52.00
2018-10-04T17:35:53.951Z,51.33
2018-10-04T17:38:25.564Z,54.93
2018-10-04T17:40:56.446Z,55.67
2018-10-04T17:43:27.777Z,58.47
2018-10-04T17:45:59.743Z,59.33
2018-10-04T17:48:31.132Z,58.70
2018-10-04T17:51:02.130Z,59.30
2018-10-04T17:53:33.500Z,61.27
2018-10-04T17:56:05.788Z,58.47
2018-10-04T17:58:37.293Z,60.00
2018-10-04T18:01:08.355Z,60.60
2018-10-04T18:03:42.555Z,59.50
2018-10-04T18:06:14.252Z,59.87
2018-10-04T18:08:45.669Z,59.83
2018-10-04T18:11:16.782Z,58.30
2018-10-04T18:13:49.160Z,59.60
2018-10-04T18:16:20.037Z,59.83
2018-10-04T18:18:59.152Z,60.97
2018-10-04T18:21:30.208Z,59.83
2018-10-04T18:24:01.636Z,59.00
2018-10-04T18:26:32.894Z,64.07
2018-10-04T18:29:04.242Z,62.17
2018-10-04T18:31:35.532Z,64.37
2018-10-04T18:34:07.717Z,62.70
2018-10-04T18:36:38.805Z,60.00
2018-10-04T18:39:11.859Z,62.67
2018-10-04T18:41:42.830Z,63.23
2018-10-04T18:44:14.271Z,61.70
2018-10-04T18:46:45.167Z,59.90
2018-10-04T18:49:16.469Z,61.23
2018-10-04T18:51:47.579Z,60.00
2018-10-04T18:54:18.951Z,61.10
2018-10-04T18:56:50.011Z,61.37
2018-10-04T18:59:21.290Z,59.43
2018-10-04T19:01:52.123Z,54.30
2018-10-04T19:04:23.367Z,59.40
2018-10-04T19:06:54.429Z,60.70
2018-10-04T19:09:25.504Z,62.37
2018-10-04T19:11:57.075Z,58.30
2018-10-04T19:14:30.288Z,58.77
2018-10-04T19:17:01.610Z,58.47
2018-10-04T19:19:32.858Z,60.53
2018-10-04T19:22:04.012Z,55.07
2018-10-04T19:24:35.247Z,58.30
2018-10-04T19:27:06.172Z,59.23
2018-10-04T19:29:37.609Z,59.10
2018-10-04T19:32:08.571Z,59.27
2018-10-04T19:34:40.707Z,58.60
2018-10-04T19:37:12.637Z,61.07
2018-10-04T19:39:44.097Z,59.70
2018-10-04T19:42:15.439Z,57.60
2018-10-04T19:44:46.816Z,62.70
2018-10-04T19:47:18.350Z,58.60
2018-10-04T19:49:50.280Z,61.40
2018-10-04T19:52:21.696Z,60.20
2018-10-04T19:54:54.294Z,55.90
2018-10-04T19:57:26.612Z,58.00
2018-10-04T19:59:59.269Z,63.77
2018-10-04T20:02:30.743Z,60.20
2018-10-04T20:05:02.364Z,58.57
2018-10-04T20:07:33.667Z,64.03
2018-10-04T20:10:05.285Z,66.07
2018-10-04T20:12:36.760Z,67.73
2018-10-04T20:15:09.808Z,66.40
2018-10-04T20:17:41.079Z,66.67
2018-10-04T20:20:12.728Z,66.40
2018-10-04T20:22:44.132Z,66.97
2018-10-04T20:25:15.570Z,67.23
2018-10-04T20:27:46.836Z,63.47
2018-10-04T20:30:18.460Z,65.33
2018-10-04T20:32:50.039Z,65.30
2018-10-04T20:35:21.359Z,64.17
2018-10-04T20:37:52.864Z,68.70
2018-10-04T20:40:24.439Z,62.40
2018-10-04T20:42:55.720Z,66.47
2018-10-04T20:45:27.527Z,66.60
2018-10-04T20:47:58.659Z,65.33
2018-10-04T20:50:30.432Z,68.93
2018-10-04T20:53:02.310Z,67.87
2018-10-04T20:55:34.030Z,69.13
2018-10-04T20:58:05.263Z,64.77
2018-10-04T21:00:36.827Z,66.17
2018-10-04T21:03:08.158Z,67.03
2018-10-04T21:05:39.863Z,64.97
2018-10-04T21:08:11.367Z,68.50
2018-10-04T21:10:43.430Z,68.07
2018-10-04T21:13:14.684Z,70.13
2018-10-04T21:15:47.651Z,67.47
2018-10-04T21:18:18.911Z,69.07
2018-10-04T21:20:50.816Z,68.20
2018-10-04T21:23:22.110Z,69.87
2018-10-04T21:25:53.849Z,72.80
2018-10-04T21:28:25.235Z,71.20
2018-10-04T21:30:56.820Z,70.87
2018-10-04T21:33:28.279Z,68.10
2018-10-04T21:36:00.207Z,73.03
2018-10-04T21:38:31.556Z,67.77
2018-10-04T21:41:04.204Z,69.03
2018-10-04T21:43:35.790Z,71.83
2018-10-04T21:46:07.676Z,72.73
2018-10-04T21:48:39.201Z,71.27
2018-10-04T21:51:10.804Z,71.90
2018-10-04T21:53:42.138Z,70.17
2018-10-04T21:56:13.523Z,68.80
2018-10-04T21:58:44.835Z,73.30
2018-10-04T22:01:19.305Z,71.80
2018-10-04T22:03:50.830Z,73.00
2018-10-04T22:06:22.627Z,73.53
2018-10-04T22:08:54.084Z,71.63
2018-10-04T22:11:25.675Z,68.27
2018-10-04T22:13:57.068Z,73.57
2018-10-04T22:16:29.743Z,72.23
2018-10-04T22:19:01.257Z,71.57
2018-10-04T22:21:32.748Z,68.87
2018-10-04T22:24:04.300Z,67.10
2018-10-04T22:26:36.740Z,68.90
2018-10-04T22:29:08.303Z,65.30
2018-10-04T22:31:39.847Z,72.07
2018-10-04T22:34:11.208Z,69.70
2018-10-04T22:36:43.160Z,70.53
2018-10-04T22:39:14.691Z,71.53
2018-10-04T22:41:46.294Z,72.93
2018-10-04T22:44:17.595Z,70.50
2018-10-04T22:46:49.328Z,69.80
2018-10-04T22:49:20.707Z,73.20
2018-10-04T22:51:52.215Z,69.23
2018-10-04T22:54:23.423Z,70.03
2018-10-04T22:56:55.437Z,69.73
2018-10-04T22:59:27.041Z,70.47
2018-10-04T23:01:58.576Z,67.50
2018-10-04T23:04:29.938Z,65.93
2018-10-04T23:07:02.605Z,68.80
2018-10-04T23:09:34.071Z,67.73
2018-10-04T23:12:05.867Z,71.40
2018-10-04T23:14:37.282Z,69.93
2018-10-04T23:17:09.855Z,68.73
2018-10-04T23:19:41.312Z,73.43
2018-10-04T23:22:12.709Z,74.47
2018-10-04T23:24:44.099Z,70.20
2018-10-04T23:27:16.028Z,73.77
2018-10-04T23:29:47.112Z,71.33
2018-10-04T23:32:18.800Z,73.80
2018-10-04T23:34:49.928Z,68.23
2018-10-04T23:37:21.599Z,68.93
2018-10-04T23:39:53.121Z,71.10
2018-10-04T23:42:25.201Z,72.27
2018-10-04T23:44:56.552Z,69.17
2018-10-04T23:47:28.354Z,74.00
2018-10-04T23:49:59.520Z,69.43
2018-10-04T23:52:31.223Z,71.23
2018-10-04T23:55:03.055Z,74.47
2018-10-04T23:57:34.631Z,75.50
